VLG24DC LEBL-LEMG
Flight info
| Callsign | VLG24DC |
|---|---|
| Flight time | N/A |
| Altitude | 30000 |
| Route | SENIA Z596 CRETA/N0468F310 Z596 NEXAS N975 ADUXO N869 BLN |
| Aircraft | A320/M-SDE3FGHIRWY/LB1 |
Departure
| Time | N/A |
|---|---|
| Airport | Josep Tarradellas Barcelona-El Prat Airport (LEBL) |
Arrival
| Time | 2026-05-03 20:50 |
|---|---|
| Airport | Málaga-Costa del Sol Airport (LEMG) |
| Time | Latitude | Longitude | Altitude | Speed | Heading |
|---|---|---|---|---|---|
| 2026-05-03 20:15 | 39.22282 | -3.11349 | 30964 ft | 421 kts | 206° |
| 2026-05-03 20:15 | 39.16808 | -3.14003 | 30968 ft | 421 kts | 206° |
| 2026-05-03 20:16 | 39.11329 | -3.16656 | 30969 ft | 421 kts | 206° |
| 2026-05-03 20:16 | 39.05843 | -3.19315 | 30970 ft | 420 kts | 206° |
| 2026-05-03 20:17 | 39.00382 | -3.21957 | 30970 ft | 420 kts | 206° |
| 2026-05-03 20:17 | 38.94923 | -3.24584 | 30972 ft | 419 kts | 206° |
| 2026-05-03 20:18 | 38.89447 | -3.27223 | 30976 ft | 419 kts | 206° |
| 2026-05-03 20:18 | 38.84002 | -3.29835 | 30980 ft | 418 kts | 206° |
| 2026-05-03 20:19 | 38.78545 | -3.32443 | 30985 ft | 418 kts | 206° |
| 2026-05-03 20:19 | 38.73107 | -3.35044 | 30983 ft | 417 kts | 206° |
| 2026-05-03 20:20 | 38.67703 | -3.37624 | 30984 ft | 417 kts | 206° |
| 2026-05-03 20:20 | 38.62275 | -3.40217 | 30990 ft | 416 kts | 207° |
| 2026-05-03 20:21 | 38.56854 | -3.42798 | 30990 ft | 415 kts | 207° |
| 2026-05-03 20:21 | 38.51439 | -3.45373 | 30986 ft | 415 kts | 207° |
| 2026-05-03 20:22 | 38.46026 | -3.47942 | 30988 ft | 415 kts | 207° |
| 2026-05-03 20:22 | 38.40619 | -3.50497 | 30986 ft | 414 kts | 207° |
| 2026-05-03 20:23 | 38.35212 | -3.53052 | 30988 ft | 414 kts | 207° |
| 2026-05-03 20:23 | 38.29808 | -3.55610 | 30986 ft | 414 kts | 207° |
| 2026-05-03 20:24 | 38.24407 | -3.58156 | 30985 ft | 414 kts | 207° |
| 2026-05-03 20:24 | 38.19012 | -3.60743 | 30986 ft | 410 kts | 211° |
| 2026-05-03 20:25 | 38.14423 | -3.64734 | 30990 ft | 396 kts | 229° |
| 2026-05-03 20:25 | 38.11105 | -3.70229 | 30991 ft | 391 kts | 238° |
| 2026-05-03 20:26 | 38.08047 | -3.75944 | 30997 ft | 391 kts | 238° |
| 2026-05-03 20:26 | 38.04983 | -3.81655 | 30996 ft | 391 kts | 238° |
| 2026-05-03 20:27 | 38.01916 | -3.87346 | 30998 ft | 391 kts | 238° |
| 2026-05-03 20:27 | 37.98833 | -3.93050 | 30997 ft | 391 kts | 238° |
| 2026-05-03 20:28 | 37.95756 | -3.98739 | 30999 ft | 391 kts | 238° |
| 2026-05-03 20:28 | 37.92685 | -4.04424 | 30999 ft | 391 kts | 238° |
| 2026-05-03 20:29 | 37.89627 | -4.10092 | 31000 ft | 391 kts | 238° |
| 2026-05-03 20:29 | 37.86547 | -4.15768 | 30999 ft | 391 kts | 238° |
| 2026-05-03 20:30 | 37.83463 | -4.21435 | 30998 ft | 391 kts | 238° |
| 2026-05-03 20:30 | 37.80379 | -4.27091 | 30060 ft | 389 kts | 238° |
| 2026-05-03 20:30 | 37.78829 | -4.29938 | 28265 ft | 395 kts | 237° |
| 2026-05-03 20:31 | 37.77266 | -4.32810 | 26520 ft | 397 kts | 237° |
| 2026-05-03 20:31 | 37.75702 | -4.35679 | 25217 ft | 392 kts | 237° |
| 2026-05-03 20:31 | 37.74204 | -4.38414 | 24878 ft | 364 kts | 237° |
| 2026-05-03 20:31 | 37.72817 | -4.40943 | 24742 ft | 336 kts | 237° |
| 2026-05-03 20:32 | 37.71519 | -4.43299 | 24310 ft | 320 kts | 237° |
| 2026-05-03 20:32 | 37.70265 | -4.45581 | 23722 ft | 311 kts | 237° |
| 2026-05-03 20:32 | 37.69037 | -4.47824 | 23638 ft | 311 kts | 237° |
| 2026-05-03 20:32 | 37.67807 | -4.50077 | 23509 ft | 312 kts | 237° |
| 2026-05-03 20:33 | 37.66578 | -4.52327 | 23369 ft | 311 kts | 237° |
| 2026-05-03 20:33 | 37.65343 | -4.54579 | 23225 ft | 311 kts | 237° |
| 2026-05-03 20:33 | 37.64111 | -4.56805 | 23099 ft | 311 kts | 234° |
| 2026-05-03 20:33 | 37.62604 | -4.58765 | 22940 ft | 314 kts | 222° |
| 2026-05-03 20:34 | 37.60746 | -4.60271 | 22323 ft | 321 kts | 213° |
| 2026-05-03 20:34 | 37.58825 | -4.61626 | 21858 ft | 318 kts | 213° |
| 2026-05-03 20:34 | 37.56887 | -4.62990 | 21462 ft | 315 kts | 213° |
| 2026-05-03 20:34 | 37.54997 | -4.64325 | 21035 ft | 312 kts | 213° |
| 2026-05-03 20:35 | 37.53107 | -4.65640 | 20606 ft | 312 kts | 210° |
| 2026-05-03 20:35 | 37.51040 | -4.66528 | 20196 ft | 316 kts | 196° |
| 2026-05-03 20:35 | 37.48828 | -4.66740 | 19787 ft | 321 kts | 186° |
| 2026-05-03 20:35 | 37.46607 | -4.66719 | 19384 ft | 319 kts | 185° |
| 2026-05-03 20:36 | 37.44396 | -4.66695 | 18969 ft | 315 kts | 185° |
| 2026-05-03 20:36 | 37.42213 | -4.66671 | 18272 ft | 312 kts | 185° |
| 2026-05-03 20:36 | 37.40059 | -4.66668 | 17506 ft | 307 kts | 189° |
| 2026-05-03 20:36 | 37.37984 | -4.67149 | 16988 ft | 300 kts | 202° |
| 2026-05-03 20:37 | 37.36122 | -4.68195 | 16358 ft | 290 kts | 213° |
| 2026-05-03 20:37 | 37.34414 | -4.69464 | 15667 ft | 287 kts | 213° |
| 2026-05-03 20:37 | 37.32685 | -4.70749 | 15144 ft | 283 kts | 213° |
| 2026-05-03 20:37 | 37.30995 | -4.72004 | 14682 ft | 281 kts | 213° |
| 2026-05-03 20:38 | 37.29330 | -4.73241 | 14224 ft | 283 kts | 213° |
| 2026-05-03 20:38 | 37.27624 | -4.74512 | 13781 ft | 285 kts | 213° |
| 2026-05-03 20:38 | 37.25917 | -4.75783 | 13349 ft | 285 kts | 213° |
| 2026-05-03 20:38 | 37.24249 | -4.77018 | 13262 ft | 273 kts | 213° |
| 2026-05-03 20:39 | 37.22634 | -4.78210 | 13164 ft | 263 kts | 213° |
| 2026-05-03 20:39 | 37.21082 | -4.79351 | 13039 ft | 254 kts | 212° |
| 2026-05-03 20:39 | 37.19450 | -4.80118 | 12919 ft | 250 kts | 195° |
| 2026-05-03 20:39 | 37.17684 | -4.80233 | 12504 ft | 258 kts | 185° |
| 2026-05-03 20:40 | 37.15881 | -4.80212 | 12114 ft | 260 kts | 185° |
| 2026-05-03 20:40 | 37.14065 | -4.80187 | 11740 ft | 262 kts | 184° |
| 2026-05-03 20:40 | 37.12238 | -4.80162 | 11355 ft | 263 kts | 184° |
| 2026-05-03 20:40 | 37.10401 | -4.80137 | 10970 ft | 265 kts | 184° |
| 2026-05-03 20:41 | 37.08554 | -4.80114 | 10590 ft | 265 kts | 184° |
| 2026-05-03 20:41 | 37.06707 | -4.80092 | 10206 ft | 266 kts | 184° |
| 2026-05-03 20:41 | 37.04855 | -4.80069 | 9815 ft | 267 kts | 184° |
| 2026-05-03 20:41 | 37.03017 | -4.80043 | 9401 ft | 259 kts | 183° |
| 2026-05-03 20:42 | 37.01257 | -4.80016 | 9036 ft | 247 kts | 183° |
| 2026-05-03 20:42 | 36.99593 | -4.79992 | 8690 ft | 236 kts | 183° |
| 2026-05-03 20:42 | 36.97977 | -4.79974 | 8355 ft | 230 kts | 183° |
| 2026-05-03 20:42 | 36.96373 | -4.79961 | 8015 ft | 230 kts | 182° |
| 2026-05-03 20:43 | 36.94783 | -4.79949 | 7694 ft | 228 kts | 182° |
| 2026-05-03 20:43 | 36.93186 | -4.79854 | 7361 ft | 229 kts | 172° |
| 2026-05-03 20:43 | 36.91673 | -4.79279 | 7031 ft | 230 kts | 163° |
| 2026-05-03 20:43 | 36.90159 | -4.78619 | 6697 ft | 230 kts | 163° |
| 2026-05-03 20:44 | 36.88643 | -4.77959 | 6360 ft | 228 kts | 162° |
| 2026-05-03 20:44 | 36.87159 | -4.77309 | 6016 ft | 227 kts | 161° |
| 2026-05-03 20:44 | 36.85743 | -4.76416 | 5672 ft | 227 kts | 153° |
| 2026-05-03 20:44 | 36.84359 | -4.75476 | 5348 ft | 227 kts | 153° |
| 2026-05-03 20:45 | 36.82970 | -4.74542 | 5023 ft | 227 kts | 153° |
| 2026-05-03 20:45 | 36.81584 | -4.73611 | 4686 ft | 226 kts | 153° |
| 2026-05-03 20:45 | 36.80194 | -4.72678 | 4344 ft | 227 kts | 153° |
| 2026-05-03 20:45 | 36.78808 | -4.71747 | 4018 ft | 226 kts | 152° |
| 2026-05-03 20:46 | 36.77563 | -4.70602 | 3709 ft | 225 kts | 133° |
| 2026-05-03 20:46 | 36.76694 | -4.68981 | 3385 ft | 226 kts | 116° |
| 2026-05-03 20:46 | 36.75984 | -4.67236 | 3050 ft | 226 kts | 116° |
| 2026-05-03 20:46 | 36.75269 | -4.65497 | 2723 ft | 225 kts | 116° |
| 2026-05-03 20:47 | 36.74553 | -4.63767 | 2453 ft | 223 kts | 117° |
| 2026-05-03 20:47 | 36.74072 | -4.62623 | 2179 ft | 225 kts | 117° |
| 2026-05-03 20:47 | 36.73335 | -4.60869 | 1851 ft | 225 kts | 117° |
| 2026-05-03 20:47 | 36.72613 | -4.59147 | 1539 ft | 221 kts | 117° |
| 2026-05-03 20:48 | 36.71934 | -4.57528 | 1280 ft | 205 kts | 116° |
| 2026-05-03 20:48 | 36.71314 | -4.56050 | 1018 ft | 178 kts | 117° |
| 2026-05-03 20:48 | 36.70772 | -4.54759 | 786 ft | 156 kts | 116° |
| 2026-05-03 20:48 | 36.70296 | -4.53624 | 590 ft | 142 kts | 116° |
| 2026-05-03 20:49 | 36.69856 | -4.52577 | 404 ft | 136 kts | 116° |
| 2026-05-03 20:49 | 36.69427 | -4.51544 | 256 ft | 133 kts | 116° |
| 2026-05-03 20:49 | 36.68993 | -4.50534 | 58 ft | 128 kts | 116° |
| 2026-05-03 20:49 | 36.68621 | -4.49654 | 49 ft | 99 kts | 113° |
| 2026-05-03 20:50 | 36.68378 | -4.49045 | 43 ft | 46 kts | 118° |
| 2026-05-03 20:50 | 36.68250 | -4.48753 | 42 ft | 36 kts | 122° |
| 2026-05-03 20:50 | 36.68108 | -4.48540 | 39 ft | 17 kts | 160° |
| 2026-05-03 20:50 | 36.68056 | -4.48514 | 38 ft | 0 kts | 153° |
| 2026-05-03 20:51 | 36.68053 | -4.48512 | 38 ft | 1 kts | 153° |
| 2026-05-03 20:51 | 36.68044 | -4.48507 | 38 ft | 5 kts | 153° |
| 2026-05-03 20:51 | 36.67986 | -4.48525 | 40 ft | 11 kts | 253° |
| 2026-05-03 20:51 | 36.68007 | -4.48597 | 40 ft | 11 kts | 287° |
| 2026-05-03 20:52 | 36.68083 | -4.48792 | 40 ft | 30 kts | 296° |
| 2026-05-03 20:52 | 36.68181 | -4.49025 | 40 ft | 31 kts | 295° |
| 2026-05-03 20:52 | 36.68276 | -4.49255 | 41 ft | 25 kts | 288° |
| 2026-05-03 20:52 | 36.68183 | -4.49415 | 42 ft | 24 kts | 222° |
| 2026-05-03 20:53 | 36.68052 | -4.49567 | 42 ft | 27 kts | 224° |
| 2026-05-03 20:53 | 36.67909 | -4.49732 | 42 ft | 29 kts | 222° |
| 2026-05-03 20:53 | 36.67799 | -4.49793 | 42 ft | 15 kts | 145° |
| 2026-05-03 20:53 | 36.67723 | -4.49689 | 42 ft | 17 kts | 131° |
| 2026-05-03 20:54 | 36.67661 | -4.49587 | 42 ft | 4 kts | 66° |
| 2026-05-03 20:54 | 36.67693 | -4.49571 | 42 ft | 1 kts | 43° |
| 2026-05-03 20:54 | 36.67698 | -4.49566 | 42 ft | 1 kts | 43° |
| 2026-05-03 20:55 | 36.67711 | -4.49551 | 42 ft | 6 kts | 42° |
| 2026-05-03 20:55 | 36.67722 | -4.49539 | 42 ft | 0 kts | 41° |